Time;durP1;ratioP1;P1;durP2;ratioP2;P2;SDS_P1;SDS_P2;PMS_P1;PMS_P2;Temp;Humidity;BMP_temperature;BMP_pressure;BME280_temperature;BME280_humidity;BME280_pressure;Samples;Min_cycle;Max_cycle;Signal;HPM_P1;HPM_P2
2021/06/01 00:01:23;;;;;;;40.75;18.75;;;;;;;13.64;74.99;102140.13;5020751;28;20065;-73
2021/06/01 00:03:50;;;;;;;41.03;18.70;;;;;;;13.60;75.25;102143.81;5014921;28;20161;-71
2021/06/01 00:06:19;;;;;;;40.13;17.30;;;;;;;13.58;75.64;102139.41;5018161;28;20073;-72
2021/06/01 00:08:46;;;;;;;41.30;19.48;;;;;;;13.57;75.53;102134.94;5015539;28;20069;-72
2021/06/01 00:11:14;;;;;;;33.90;14.85;;;;;;;13.50;75.09;102144.97;5021726;28;20107;-73
2021/06/01 00:13:42;;;;;;;44.83;17.65;;;;;;;13.47;75.44;102139.66;5019428;28;20061;-72
2021/06/01 00:16:11;;;;;;;47.15;18.70;;;;;;;13.46;75.59;102137.88;5023056;28;20235;-72
2021/06/01 00:18:40;;;;;;;45.33;16.92;;;;;;;13.44;75.25;102132.56;5018340;28;20065;-73
2021/06/01 00:21:08;;;;;;;41.97;16.80;;;;;;;13.42;75.64;102142.44;5019191;28;20081;-73
2021/06/01 00:23:37;;;;;;;34.92;14.30;;;;;;;13.39;74.94;102137.16;5018133;28;20061;-72
2021/06/01 00:26:06;;;;;;;37.15;15.60;;;;;;;13.34;74.63;102132.81;5015359;28;20134;-72
2021/06/01 00:28:34;;;;;;;39.70;17.00;;;;;;;13.34;74.64;102127.47;5020086;28;20057;-72
2021/06/01 00:31:01;;;;;;;39.35;16.20;;;;;;;13.32;74.43;102126.63;5013509;28;20073;-73
2021/06/01 00:33:29;;;;;;;37.08;14.98;;;;;;;13.26;74.01;102114.19;5020378;28;20049;-72
2021/06/01 00:35:56;;;;;;;33.50;14.52;;;;;;;13.26;73.93;102122.22;5015167;28;20068;-72
2021/06/01 00:38:24;;;;;;;37.28;15.48;;;;;;;13.26;74.32;102128.50;5019993;28;20057;-72
2021/06/01 00:40:53;;;;;;;32.22;13.27;;;;;;;13.22;73.81;102128.59;5017571;28;20560;-72
2021/06/01 00:43:20;;;;;;;31.27;13.80;;;;;;;13.19;73.21;102124.16;5018274;28;20053;-72
2021/06/01 00:45:47;;;;;;;34.20;13.93;;;;;;;13.16;72.64;102129.63;5017507;28;20070;-72
2021/06/01 00:48:15;;;;;;;32.38;14.25;;;;;;;13.16;72.02;102126.94;5019576;28;20116;-72
2021/06/01 00:50:42;;;;;;;32.55;13.50;;;;;;;13.11;72.33;102133.28;5016869;28;20068;-72
2021/06/01 00:53:10;;;;;;;29.83;12.73;;;;;;;13.05;72.19;102124.47;5018092;28;20541;-73
2021/06/01 00:55:38;;;;;;;35.28;13.43;;;;;;;13.05;71.30;102120.91;5016943;28;20474;-73
2021/06/01 00:58:06;;;;;;;25.55;11.68;;;;;;;12.99;71.36;102126.41;5020324;28;20065;-72
2021/06/01 01:00:52;;;;;;;30.85;12.70;;;;;;;12.97;71.98;102125.56;5015496;28;20057;-72
2021/06/01 01:03:20;;;;;;;31.52;13.18;;;;;;;12.90;72.00;102122.13;5018041;28;20066;-73
2021/06/01 01:05:49;;;;;;;24.83;10.98;;;;;;;12.83;71.28;102110.66;5017406;28;20057;-74
2021/06/01 01:08:32;;;;;;;27.60;11.85;;;;;;;12.77;71.25;102116.16;5018693;28;20069;-73
2021/06/01 01:11:03;;;;;;;29.70;13.07;;;;;;;12.74;72.18;102118.03;5015879;28;20073;-73
2021/06/01 01:13:39;;;;;;;25.30;11.18;;;;;;;12.66;72.60;102116.38;5024555;28;20407;-72
2021/06/01 01:16:07;;;;;;;26.55;10.38;;;;;;;12.66;72.38;102119.03;5016830;28;20061;-72
2021/06/01 01:18:35;;;;;;;27.42;11.75;;;;;;;12.58;72.41;102118.34;5007426;28;20057;-73
2021/06/01 01:21:13;;;;;;;26.42;12.43;;;;;;;12.52;72.43;102113.09;5020791;28;20140;-73
2021/06/01 01:23:51;;;;;;;30.00;12.25;;;;;;;12.47;71.89;102109.63;5023089;28;20148;-72
2021/06/01 01:26:23;;;;;;;24.67;11.68;;;;;;;12.43;72.39;102105.22;5021883;28;20061;-73
2021/06/01 01:29:12;;;;;;;24.92;10.75;;;;;;;12.41;72.47;102109.75;5024080;28;20061;-72
2021/06/01 01:31:46;;;;;;;27.58;12.52;;;;;;;12.36;72.95;102108.94;5020406;28;20433;-73
2021/06/01 01:34:16;;;;;;;28.63;11.57;;;;;;;12.34;71.53;102106.28;5020094;28;20233;-73
2021/06/01 01:36:45;;;;;;;23.00;10.57;;;;;;;12.30;71.97;102105.47;5020212;28;20065;-73
2021/06/01 01:39:15;;;;;;;27.92;11.40;;;;;;;12.21;72.06;102102.09;5019930;28;20473;-72
2021/06/01 01:41:44;;;;;;;23.90;10.80;;;;;;;12.20;72.10;102098.53;5021646;28;20531;-72
2021/06/01 01:44:14;;;;;;;24.42;10.18;;;;;;;12.18;72.03;102102.16;5018260;28;20061;-72
2021/06/01 01:46:57;;;;;;;25.98;11.15;;;;;;;12.14;72.52;102101.34;5023720;28;20053;-72
2021/06/01 01:49:27;;;;;;;26.80;11.25;;;;;;;12.06;72.84;102092.56;5022595;28;20065;-71
2021/06/01 01:51:59;;;;;;;23.83;10.65;;;;;;;12.05;72.01;102099.69;5021956;28;20065;-71
2021/06/01 01:54:30;;;;;;;24.05;10.70;;;;;;;11.99;72.88;102097.16;5023831;28;20099;-72
2021/06/01 01:57:08;;;;;;;24.63;10.35;;;;;;;11.96;73.24;102097.19;5023005;28;20103;-74
2021/06/01 01:59:37;;;;;;;23.88;9.65;;;;;;;11.90;72.33;102103.50;5005345;28;20363;-76
2021/06/01 02:02:09;;;;;;;23.33;10.05;;;;;;;11.90;73.02;102106.19;5021600;28;20092;-76
2021/06/01 02:04:39;;;;;;;20.52;9.10;;;;;;;11.88;72.59;102102.63;5020960;28;20072;-77
2021/06/01 02:07:07;;;;;;;23.58;10.57;;;;;;;11.87;72.77;102105.38;5023228;28;20112;-76
2021/06/01 02:09:36;;;;;;;22.80;9.95;;;;;;;11.86;73.36;102096.44;5019629;28;20092;-76
2021/06/01 02:12:04;;;;;;;25.25;10.43;;;;;;;11.81;73.34;102100.97;5021237;28;20052;-76
2021/06/01 02:14:32;;;;;;;20.52;9.63;;;;;;;11.78;73.62;102093.00;5020047;28;20065;-76
2021/06/01 02:16:59;;;;;;;23.95;11.20;;;;;;;11.75;73.76;102093.09;5026357;28;20148;-76
2021/06/01 02:19:27;;;;;;;29.08;12.88;;;;;;;11.69;73.60;102099.41;5018247;28;20144;-76
2021/06/01 02:22:07;;;;;;;26.35;11.43;;;;;;;11.65;73.86;102102.16;5021467;28;20061;-76
2021/06/01 02:24:39;;;;;;;24.23;10.55;;;;;;;11.61;74.51;102103.09;5016173;28;20057;-76
2021/06/01 02:27:13;;;;;;;29.20;12.13;;;;;;;11.57;74.19;102100.47;5023444;28;20426;-76
2021/06/01 02:29:47;;;;;;;27.77;11.88;;;;;;;11.58;74.94;102106.72;5018151;28;20087;-78
2021/06/01 02:32:14;;;;;;;;;;;;;;;11.62;75.58;102099.53;5020131;28;20061;-77
2021/06/01 02:34:43;;;;;;;26.55;11.88;;;;;;;11.59;76.17;102101.38;5020567;28;20330;-77
2021/06/01 02:37:12;;;;;;;25.27;11.13;;;;;;;11.59;75.88;102104.03;5019569;28;20568;-76
2021/06/01 02:39:40;;;;;;;22.88;11.23;;;;;;;11.52;75.76;102099.66;5001031;28;20669;-77
2021/06/01 02:42:10;;;;;;;24.38;11.07;;;;;;;11.50;75.88;102098.81;5003544;28;20070;-78
2021/06/01 02:44:37;;;;;;;24.40;10.82;;;;;;;11.49;75.24;102102.41;5020215;28;20053;-78
2021/06/01 02:47:05;;;;;;;23.83;10.18;;;;;;;11.48;74.95;102097.97;5020564;28;20513;-78
2021/06/01 02:49:34;;;;;;;23.58;10.75;;;;;;;11.46;75.12;102094.44;5021282;28;20448;-77
2021/06/01 02:52:03;;;;;;;20.50;8.82;;;;;;;11.42;74.95;102094.50;5022095;28;20069;-78
2021/06/01 02:54:31;;;;;;;24.35;10.82;;;;;;;11.40;74.79;102089.19;5017817;28;20601;-78
2021/06/01 02:57:00;;;;;;;21.42;10.07;;;;;;;11.35;74.54;102085.69;5020272;28;20061;-77
2021/06/01 02:59:29;;;;;;;22.23;9.77;;;;;;;11.37;74.89;102089.22;5020876;28;20056;-77
2021/06/01 03:01:57;;;;;;;22.70;10.23;;;;;;;11.35;74.54;102088.38;5018071;28;20426;-77
2021/06/01 03:04:25;;;;;;;19.30;8.52;;;;;;;11.34;74.55;102079.47;5022093;28;20068;-77
2021/06/01 03:06:52;;;;;;;25.42;9.57;;;;;;;11.35;74.60;102081.22;5017792;28;20092;-79
2021/06/01 03:09:19;;;;;;;20.08;9.18;;;;;;;11.31;75.15;102090.22;5021518;28;20066;-78
2021/06/01 03:11:48;;;;;;;17.35;7.38;;;;;;;11.29;75.00;102091.13;5017133;28;20065;-78
2021/06/01 03:14:16;;;;;;;19.85;8.27;;;;;;;11.29;75.40;102088.44;5001791;28;20072;-77
2021/06/01 03:16:43;;;;;;;15.55;7.90;;;;;;;11.25;74.74;102078.72;5018652;28;20238;-78
2021/06/01 03:19:10;;;;;;;19.17;8.93;;;;;;;11.19;74.78;102085.06;5023003;28;20057;-78
2021/06/01 03:21:39;;;;;;;20.60;8.73;;;;;;;11.17;75.67;102092.22;5018510;28;20080;-78
2021/06/01 03:24:07;;;;;;;15.50;7.82;;;;;;;11.12;74.49;102086.94;5023518;28;20060;-78
2021/06/01 03:26:34;;;;;;;19.45;8.10;;;;;;;11.08;75.15;102087.00;5016826;28;20061;-77
2021/06/01 03:29:03;;;;;;;16.10;7.47;;;;;;;11.05;73.79;102084.34;5022559;28;20093;-78
2021/06/01 03:31:32;;;;;;;18.77;8.73;;;;;;;11.06;74.95;102080.78;5002476;28;20057;-78
2021/06/01 03:33:59;;;;;;;18.98;7.68;;;;;;;11.01;74.33;102086.19;5023944;28;20084;-78
2021/06/01 03:36:27;;;;;;;15.73;8.20;;;;;;;10.99;74.05;102088.00;5024590;28;20050;-77
2021/06/01 03:38:54;;;;;;;19.02;8.52;;;;;;;11.02;74.42;102093.31;5023268;28;20262;-78
2021/06/01 03:41:21;;;;;;;17.75;7.65;;;;;;;11.02;74.28;102087.97;5021809;28;20113;-78
2021/06/01 03:43:48;;;;;;;17.63;7.50;;;;;;;11.02;73.94;102080.84;5015920;28;20061;-77
2021/06/01 03:46:17;;;;;;;16.92;8.45;;;;;;;11.03;74.15;102077.28;5022310;28;20483;-80
2021/06/01 03:48:44;;;;;;;16.65;7.60;;;;;;;11.01;74.60;102084.41;5017603;28;20061;-72
2021/06/01 03:51:12;;;;;;;17.58;8.38;;;;;;;10.98;74.31;102084.47;5019643;28;20057;-72
2021/06/01 03:53:39;;;;;;;18.38;7.57;;;;;;;10.96;74.85;102082.69;5013502;28;20060;-73
2021/06/01 03:56:06;;;;;;;18.67;7.57;;;;;;;10.96;74.08;102085.38;5019970;28;20145;-72
2021/06/01 03:58:34;;;;;;;17.73;8.50;;;;;;;10.96;74.41;102080.03;5017211;28;20065;-72
2021/06/01 04:01:01;;;;;;;18.55;8.18;;;;;;;10.97;74.31;102081.81;5020590;28;20459;-73
2021/06/01 04:03:29;;;;;;;19.05;8.45;;;;;;;11.06;74.43;102083.47;5014999;28;20357;-73
2021/06/01 04:05:57;;;;;;;19.30;8.70;;;;;;;11.09;73.92;102083.44;5022299;28;20462;-73
2021/06/01 04:08:24;;;;;;;19.20;8.75;;;;;;;11.05;73.86;102085.25;5016617;28;20065;-73
2021/06/01 04:10:52;;;;;;;20.08;9.15;;;;;;;11.06;74.23;102086.13;5020744;28;20065;-73
2021/06/01 04:13:19;;;;;;;19.05;8.30;;;;;;;11.09;74.07;102078.97;5017757;28;20067;-73
2021/06/01 04:15:46;;;;;;;18.13;8.73;;;;;;;11.13;74.33;102074.44;5020354;28;20633;-74
2021/06/01 04:18:14;;;;;;;19.17;8.50;;;;;;;11.14;74.25;102076.22;5017100;28;21252;-73
2021/06/01 04:20:42;;;;;;;18.13;8.02;;;;;;;11.19;74.25;102075.25;5019387;28;20057;-73
2021/06/01 04:23:09;;;;;;;17.67;8.00;;;;;;;11.23;74.30;102080.56;5020117;28;20422;-73
2021/06/01 04:25:37;;;;;;;20.70;8.57;;;;;;;11.25;74.32;102073.38;5018180;28;20057;-73
2021/06/01 04:28:05;;;;;;;19.27;8.07;;;;;;;11.31;73.82;102074.19;5019083;28;20088;-72
2021/06/01 04:30:33;;;;;;;15.75;7.70;;;;;;;11.37;73.75;102078.53;5014643;28;20092;-73
2021/06/01 04:33:00;;;;;;;20.60;8.68;;;;;;;11.48;73.31;102071.25;5019299;28;20096;-73
2021/06/01 04:35:28;;;;;;;18.95;9.23;;;;;;;11.54;72.69;102072.91;5019213;28;20364;-73
2021/06/01 04:37:56;;;;;;;18.48;8.57;;;;;;;11.69;72.27;102075.34;5019149;28;20068;-74
2021/06/01 04:40:24;;;;;;;17.45;8.00;;;;;;;11.84;71.68;102068.84;5017093;28;20481;-73
2021/06/01 04:42:51;;;;;;;19.65;8.50;;;;;;;11.98;70.04;102067.75;5017512;28;20061;-73
2021/06/01 04:45:19;;;;;;;19.50;8.38;;;;;;;12.14;69.80;102077.25;5017268;28;20490;-73
2021/06/01 04:47:46;;;;;;;15.25;7.88;;;;;;;12.33;68.87;102067.97;5024043;28;20065;-73
2021/06/01 04:50:14;;;;;;;17.42;7.68;;;;;;;12.50;67.39;102062.25;5019086;28;20069;-73
2021/06/01 04:52:41;;;;;;;15.52;7.85;;;;;;;12.71;66.78;102071.63;5024298;28;20160;-74
2021/06/01 04:55:11;;;;;;;15.00;7.35;;;;;;;12.92;65.20;102063.16;5020492;28;20096;-73
2021/06/01 04:57:39;;;;;;;15.63;7.40;;;;;;;13.11;63.23;102064.53;5026544;28;20490;-72
2021/06/01 05:00:09;;;;;;;15.27;7.30;;;;;;;13.34;63.54;102069.34;5021197;28;20053;-73
2021/06/01 05:02:37;;;;;;;18.33;8.18;;;;;;;13.51;61.91;102063.56;5023152;28;20460;-74
2021/06/01 05:05:06;;;;;;;16.05;7.30;;;;;;;13.75;61.22;102058.50;5019803;28;20057;-73
2021/06/01 05:07:33;;;;;;;16.20;7.32;;;;;;;13.97;60.19;102056.16;5024349;28;20053;-73
2021/06/01 05:10:03;;;;;;;15.25;7.60;;;;;;;14.23;59.92;102054.53;5024334;28;20107;-73
2021/06/01 05:12:32;;;;;;;14.88;6.75;;;;;;;14.43;59.08;102053.97;5021363;28;20061;-74
2021/06/01 05:15:00;;;;;;;12.65;6.57;;;;;;;14.65;58.22;102048.91;5028251;28;20061;-74
2021/06/01 05:17:27;;;;;;;17.23;7.80;;;;;;;14.85;56.75;102046.47;5024675;28;20068;-74
2021/06/01 05:19:54;;;;;;;16.95;7.88;;;;;;;15.01;56.14;102051.38;5024172;28;20073;-73
2021/06/01 05:22:22;;;;;;;16.02;7.72;;;;;;;15.26;56.20;102046.97;5020024;28;20060;-73
2021/06/01 05:24:49;;;;;;;16.20;7.63;;;;;;;15.46;55.92;102048.09;5022961;28;20068;-73
2021/06/01 05:27:16;;;;;;;17.05;7.57;;;;;;;15.66;55.33;102050.13;5022116;28;20102;-74
2021/06/01 05:29:49;;;;;;;17.88;8.35;;;;;;;15.91;53.83;102055.59;5020789;28;20560;-73
2021/06/01 05:35:17;;;;;;;16.40;8.32;;;;;;;16.43;53.05;102055.53;4997418;28;20065;-74
2021/06/01 05:37:45;;;;;;;19.48;8.60;;;;;;;16.43;52.08;102047.44;5021371;28;20138;-73
2021/06/01 05:40:13;;;;;;;16.63;7.82;;;;;;;16.69;51.76;102046.44;5021886;28;20458;-74
2021/06/01 05:42:41;;;;;;;16.60;7.60;;;;;;;16.81;51.02;102051.34;5019736;28;20068;-73
2021/06/01 05:45:10;;;;;;;17.10;8.40;;;;;;;16.85;50.22;102038.66;5023495;28;20409;-73
2021/06/01 05:47:38;;;;;;;18.10;9.10;;;;;;;16.99;50.11;102048.88;5020829;28;20585;-73
2021/06/01 05:50:06;;;;;;;20.15;8.98;;;;;;;17.07;49.62;102046.75;5025410;28;20422;-73
2021/06/01 05:52:35;;;;;;;18.55;8.98;;;;;;;16.97;49.64;102048.06;5016577;28;20104;-74
2021/06/01 05:55:06;;;;;;;16.58;9.13;;;;;;;17.32;48.71;102041.25;5006907;28;20060;-73
2021/06/01 05:57:34;;;;;;;17.65;8.95;;;;;;;17.63;48.96;102039.09;5017959;28;20527;-74
2021/06/01 06:00:01;;;;;;;21.48;9.73;;;;;;;17.65;48.28;102040.75;5022955;28;20053;-74
2021/06/01 06:02:29;;;;;;;20.02;9.18;;;;;;;17.94;47.80;102044.06;5019184;28;20698;-73
2021/06/01 06:04:57;;;;;;;17.80;8.10;;;;;;;18.05;47.66;102049.00;5022121;28;20068;-74
2021/06/01 06:07:24;;;;;;;16.30;9.10;;;;;;;18.22;47.54;102043.72;5025218;28;20068;-74
2021/06/01 06:09:52;;;;;;;15.30;8.90;;;;;;;18.43;46.46;102040.97;5022141;28;20068;-73
2021/06/01 06:12:19;;;;;;;19.20;8.43;;;;;;;18.54;46.48;102037.78;5006087;28;20061;-73
2021/06/01 06:14:47;;;;;;;17.90;9.20;;;;;;;18.77;46.48;102042.97;5016095;28;20057;-74
2021/06/01 06:17:28;;;;;;;20.35;9.98;;;;;;;18.76;46.40;102043.94;5020094;28;20518;-74
2021/06/01 06:19:58;;;;;;;16.27;9.05;;;;;;;19.22;45.19;102032.72;5019143;28;20058;-74
2021/06/01 06:22:25;;;;;;;15.80;8.25;;;;;;;19.36;45.70;102042.88;5019258;28;20317;-74
2021/06/01 06:24:53;;;;;;;18.95;10.10;;;;;;;19.42;44.93;102029.88;5020471;28;20065;-73
2021/06/01 06:27:20;;;;;;;20.75;8.88;;;;;;;19.36;44.90;102023.94;5019102;28;20060;-74
2021/06/01 06:29:47;;;;;;;18.55;9.35;;;;;;;19.44;45.08;102024.41;5019773;28;20050;-73
2021/06/01 06:32:15;;;;;;;18.17;9.68;;;;;;;19.57;44.63;102024.66;5016737;28;20069;-74
2021/06/01 06:34:42;;;;;;;22.27;9.45;;;;;;;19.78;44.91;102030.81;5016911;28;20068;-74
2021/06/01 06:37:11;;;;;;;18.45;9.25;;;;;;;20.01;44.02;102026.91;5001548;28;20061;-73
2021/06/01 06:39:39;;;;;;;17.10;9.35;;;;;;;20.13;44.12;102028.97;5018183;28;20345;-74
2021/06/01 06:42:07;;;;;;;20.38;10.38;;;;;;;20.16;43.31;102025.22;5022635;28;20057;-73
2021/06/01 06:44:36;;;;;;;22.40;10.25;;;;;;;20.30;43.04;102021.78;5016863;28;20076;-74
2021/06/01 06:47:17;;;;;;;19.27;10.52;;;;;;;20.05;43.72;102028.50;5023532;28;20122;-73
2021/06/01 06:49:46;;;;;;;18.08;9.50;;;;;;;20.37;42.56;102023.19;5016426;28;20164;-73
2021/06/01 06:52:15;;;;;;;17.67;9.65;;;;;;;20.36;43.25;102032.25;5021909;28;20061;-73
2021/06/01 06:54:42;;;;;;;20.10;9.88;;;;;;;20.85;41.77;102021.44;5020913;28;20057;-74
2021/06/01 06:57:10;;;;;;;18.52;10.18;;;;;;;20.67;42.12;102025.16;5025875;28;20066;-74
2021/06/01 06:59:37;;;;;;;16.77;9.40;;;;;;;20.71;41.24;102026.75;5022623;28;20062;-74
2021/06/01 07:02:05;;;;;;;18.48;9.73;;;;;;;21.06;41.51;102019.34;5019233;28;20321;-76
2021/06/01 07:04:33;;;;;;;25.00;9.85;;;;;;;21.61;39.84;102014.38;5021099;28;20138;-76
2021/06/01 07:07:00;;;;;;;17.50;9.25;;;;;;;21.98;39.56;102010.28;5015070;28;20332;-75
2021/06/01 07:09:29;;;;;;;16.05;9.05;;;;;;;22.00;38.89;102013.75;5021801;28;20329;-78
2021/06/01 07:11:56;;;;;;;16.95;9.65;;;;;;;21.96;39.03;102008.59;5015473;28;20069;-75
2021/06/01 07:14:38;;;;;;;19.33;10.07;;;;;;;22.17;39.29;102006.41;5017885;28;20499;-76
2021/06/01 07:17:06;;;;;;;19.92;10.50;;;;;;;22.58;38.50;102005.66;5016350;28;20064;-75
2021/06/01 07:19:34;;;;;;;17.58;9.82;;;;;;;22.55;38.43;102008.56;5017751;28;20093;-75
2021/06/01 07:22:01;;;;;;;21.23;9.80;;;;;;;22.98;38.42;102011.19;5013596;28;20065;-74
2021/06/01 07:24:30;;;;;;;19.60;9.38;;;;;;;22.71;40.05;102008.44;5018526;28;20061;-76
2021/06/01 07:26:57;;;;;;;15.60;8.98;;;;;;;23.07;39.78;102010.63;5016293;28;20561;-76
2021/06/01 07:29:26;;;;;;;21.85;9.60;;;;;;;23.11;39.50;102005.84;5019551;28;20326;-76
2021/06/01 07:31:54;;;;;;;17.85;9.10;;;;;;;23.09;39.01;102000.50;5017934;28;20472;-76
2021/06/01 07:34:22;;;;;;;18.33;10.07;;;;;;;23.28;39.11;102002.84;5021375;28;20143;-76
2021/06/01 07:36:49;;;;;;;17.13;9.50;;;;;;;23.30;38.18;102010.94;5015949;28;20064;-75
2021/06/01 07:39:16;;;;;;;20.98;10.07;;;;;;;23.65;38.92;102015.78;5018945;28;20476;-75
2021/06/01 07:41:45;;;;;;;21.02;11.32;;;;;;;23.45;38.91;102012.59;5013099;28;20535;-75
2021/06/01 07:44:13;;;;;;;21.27;10.18;;;;;;;24.14;38.57;102012.38;5018112;28;20297;-76
2021/06/01 07:46:40;;;;;;;19.45;10.30;;;;;;;23.69;38.47;102010.03;5013421;28;20746;-75
2021/06/01 07:49:09;;;;;;;19.88;11.40;;;;;;;23.71;38.52;102011.78;5016833;28;20065;-76
2021/06/01 07:51:37;;;;;;;17.33;10.05;;;;;;;23.98;37.61;102004.44;5017794;28;20084;-75
2021/06/01 07:54:06;;;;;;;22.50;10.98;;;;;;;24.16;37.76;102009.56;5019473;28;20068;-75
2021/06/01 07:56:34;;;;;;;20.15;10.55;;;;;;;23.73;38.21;102004.38;5007961;28;20049;-74
2021/06/01 07:59:03;;;;;;;17.40;10.07;;;;;;;23.61;38.29;101997.94;5018068;28;20052;-75
2021/06/01 08:01:31;;;;;;;21.20;10.73;;;;;;;23.72;38.73;102008.97;5012155;28;20064;-77
2021/06/01 08:03:58;;;;;;;18.02;9.75;;;;;;;24.66;37.07;101991.41;5017706;28;20061;-75
2021/06/01 08:06:29;;;;;;;21.95;11.05;;;;;;;24.36;37.55;101997.22;5015146;28;20088;-74
2021/06/01 08:08:57;;;;;;;22.17;10.00;;;;;;;24.36;37.60;101998.09;5016553;28;20057;-76
2021/06/01 08:11:24;;;;;;;19.45;10.40;;;;;;;24.14;37.28;102006.94;5016765;28;20359;-75
2021/06/01 08:13:51;;;;;;;25.23;12.48;;;;;;;24.30;37.64;102000.41;4998018;28;20058;-75
2021/06/01 08:16:23;;;;;;;21.15;11.13;;;;;;;24.54;37.16;102012.28;5022043;28;20116;-75
2021/06/01 08:19:01;;;;;;;20.75;10.70;;;;;;;24.66;37.63;101998.75;5014201;28;20088;-73
2021/06/01 08:21:41;;;;;;;19.77;10.88;;;;;;;24.80;37.45;101996.72;5022903;28;20100;-73
2021/06/01 08:24:09;;;;;;;18.48;11.02;;;;;;;24.11;38.08;101996.28;5001377;28;20064;-76
2021/06/01 08:26:36;;;;;;;18.13;10.52;;;;;;;25.04;36.63;101989.53;5018438;28;20564;-73
2021/06/01 08:29:04;;;;;;;24.15;11.07;;;;;;;24.91;36.50;101987.75;5017008;28;20148;-74
2021/06/01 08:31:33;;;;;;;16.92;9.75;;;;;;;25.35;35.67;101983.53;5019521;28;20053;-73
2021/06/01 08:34:00;;;;;;;19.77;10.15;;;;;;;25.23;36.08;101994.47;5018298;28;20061;-72
2021/06/01 08:36:27;;;;;;;21.08;10.68;;;;;;;25.67;34.18;101990.19;5017443;28;20214;-73
2021/06/01 08:38:54;;;;;;;19.00;10.13;;;;;;;25.23;34.24;101989.00;5019547;28;20481;-72
2021/06/01 08:41:22;;;;;;;16.70;10.07;;;;;;;25.19;34.01;101991.09;5016687;28;20057;-73
2021/06/01 08:43:51;;;;;;;20.25;11.43;;;;;;;25.04;35.23;101984.94;5014407;28;20065;-74
2021/06/01 08:46:23;;;;;;;18.05;11.10;;;;;;;25.35;35.86;101979.91;5021088;28;20076;-72
2021/06/01 08:48:52;;;;;;;19.95;10.90;;;;;;;25.34;35.12;101981.78;5014279;28;20097;-72
2021/06/01 08:51:21;;;;;;;20.17;10.68;;;;;;;24.99;35.52;101989.88;5016455;28;20062;-72
2021/06/01 08:53:49;;;;;;;17.80;9.43;;;;;;;25.60;35.23;101978.88;5013909;28;20063;-73
2021/06/01 08:56:18;;;;;;;20.27;10.32;;;;;;;25.09;35.32;101977.28;5016984;28;20310;-73
2021/06/01 08:58:47;;;;;;;20.05;11.20;;;;;;;25.50;34.96;101969.66;5014157;28;20115;-73
2021/06/01 09:01:16;;;;;;;15.25;9.38;;;;;;;25.64;34.79;101963.09;5017667;28;20111;-73
2021/06/01 09:03:46;;;;;;;16.70;8.88;;;;;;;26.05;33.61;101965.34;5017257;28;21102;-72
2021/06/01 09:06:20;;;;;;;16.85;8.75;;;;;;;26.13;32.67;101970.16;5016374;28;20053;-73
2021/06/01 09:09:01;;;;;;;17.85;10.07;;;;;;;25.92;33.19;101967.28;5017923;28;20076;-73
2021/06/01 09:11:37;;;;;;;17.85;9.57;;;;;;;26.67;32.09;101956.75;5017459;28;20065;-73
2021/06/01 09:14:23;;;;;;;15.95;7.90;;;;;;;26.05;31.30;101957.13;5016413;28;20061;-72
2021/06/01 09:22:58;;;;;;;15.02;7.05;;;;;;;25.96;30.53;101970.66;5019083;28;20381;-74
2021/06/01 09:25:34;;;;;;;15.48;6.72;;;;;;;26.21;29.35;101955.88;5020369;28;20065;-75
2021/06/01 09:28:03;;;;;;;12.93;7.30;;;;;;;26.39;30.57;101970.81;5019916;28;20065;-76
2021/06/01 09:30:42;;;;;;;13.43;7.18;;;;;;;26.13;30.18;101959.22;5018308;28;20349;-75
2021/06/01 09:33:26;;;;;;;15.40;7.72;;;;;;;26.67;30.33;101952.13;5024118;28;20112;-74
2021/06/01 09:35:56;;;;;;;12.80;6.63;;;;;;;26.80;29.31;101957.44;5019584;28;20054;-75
2021/06/01 09:38:27;;;;;;;15.85;7.90;;;;;;;26.28;29.46;101959.88;5008156;28;20065;-75
2021/06/01 09:41:03;;;;;;;11.40;7.10;;;;;;;26.11;28.90;101960.38;5018670;28;20065;-75
2021/06/01 09:43:31;;;;;;;14.50;7.30;;;;;;;25.97;29.06;101956.00;5025301;28;20064;-74
2021/06/01 09:46:18;;;;;;;13.18;6.95;;;;;;;26.23;30.15;101959.38;5020112;28;20057;-75
2021/06/01 09:48:45;;;;;;;12.27;6.72;;;;;;;26.56;27.98;101955.75;5028242;28;20053;-79
2021/06/01 09:51:23;;;;;;;10.07;5.95;;;;;;;26.60;27.88;101959.09;5024018;28;20084;-79
2021/06/01 09:53:55;;;;;;;10.93;6.15;;;;;;;26.59;28.00;101952.72;5029798;28;20733;-81
2021/06/01 09:56:23;;;;;;;13.80;6.68;;;;;;;26.99;27.88;101945.84;5021643;28;20354;-80
2021/06/01 09:58:52;;;;;;;8.57;5.68;;;;;;;26.69;27.79;101952.88;5022574;28;20207;-80
2021/06/01 10:01:32;;;;;;;9.88;5.18;;;;;;;27.07;26.92;101951.50;5022040;28;20793;-80
2021/06/01 10:04:00;;;;;;;10.68;5.68;;;;;;;27.34;27.48;101944.72;5021587;28;20060;-80
2021/06/01 10:06:33;;;;;;;12.57;6.63;;;;;;;27.04;27.47;101949.06;5018857;28;20069;-80
2021/06/01 10:09:11;;;;;;;11.98;6.95;;;;;;;27.07;27.33;101953.38;5021449;28;20061;-80
2021/06/01 10:11:38;;;;;;;10.70;6.43;;;;;;;26.84;27.04;101943.38;5024485;28;20085;-79
2021/06/01 10:14:06;;;;;;;11.32;6.75;;;;;;;26.71;27.16;101947.28;5025559;28;20058;-80
2021/06/01 10:16:35;;;;;;;12.38;6.40;;;;;;;26.96;26.86;101938.75;5027457;28;20104;-79
2021/06/01 10:19:04;;;;;;;13.93;6.13;;;;;;;26.97;27.11;101945.97;5030123;28;20144;-80
2021/06/01 10:21:33;;;;;;;13.25;6.35;;;;;;;26.83;27.56;101938.91;5022697;28;20064;-80
2021/06/01 10:24:02;;;;;;;11.38;6.88;;;;;;;26.78;27.01;101932.06;5028174;28;20073;-80
2021/06/01 10:26:32;;;;;;;11.32;7.05;;;;;;;26.55;27.64;101926.63;5025310;28;20059;-80
2021/06/01 10:29:00;;;;;;;10.85;6.07;;;;;;;26.99;27.73;101923.94;5024488;28;20081;-80
2021/06/01 10:31:43;;;;;;;12.48;7.32;;;;;;;26.80;27.30;101925.47;5022748;28;20053;-81
2021/06/01 10:34:13;;;;;;;14.48;6.53;;;;;;;26.79;26.50;101929.22;5022084;28;20068;-81
2021/06/01 10:42:35;;;;;;;10.63;5.45;;;;;;;27.05;26.02;101911.56;5023283;28;20057;-81
2021/06/01 10:51:04;;;;;;;9.77;5.93;;;;;;;26.42;25.70;101912.22;5027631;28;20046;-80
2021/06/01 10:53:39;;;;;;;10.13;5.60;;;;;;;26.32;25.28;101912.09;5003339;28;20162;-80
2021/06/01 10:56:10;;;;;;;12.85;5.88;;;;;;;26.76;26.28;101909.44;5024344;28;20068;-81
2021/06/01 10:59:08;;;;;;;11.15;6.20;;;;;;;27.13;26.31;101906.31;5023828;28;20061;-80
2021/06/01 11:01:51;;;;;;;12.07;6.25;;;;;;;27.26;25.36;101901.53;5025771;28;20830;-81
2021/06/01 11:04:22;;;;;;;10.32;5.40;;;;;;;26.69;26.40;101897.28;5022781;28;20142;-80
2021/06/01 11:09:54;;;;;;;9.38;5.30;;;;;;;27.23;24.98;101892.69;5024569;28;20057;-80
2021/06/01 11:12:45;;;;;;;8.75;5.30;;;;;;;27.49;24.66;101891.31;5023179;28;20053;-81
2021/06/01 11:15:34;;;;;;;9.48;5.47;;;;;;;27.30;24.38;101885.72;5009625;28;20073;-81
2021/06/01 11:18:16;;;;;;;9.10;5.15;;;;;;;27.60;24.92;101886.75;5022804;28;20068;-80
2021/06/01 11:21:22;;;;;;;10.23;6.10;;;;;;;27.12;24.62;101883.50;5023068;28;20057;-81
2021/06/01 11:24:36;;;;;;;9.80;6.00;;;;;;;26.79;26.12;101879.94;5021367;28;20069;-80
2021/06/01 11:32:56;;;;;;;8.93;4.93;;;;;;;27.30;24.28;101863.78;5022457;28;20450;-81
2021/06/01 11:35:27;;;;;;;9.07;4.50;;;;;;;27.19;24.15;101865.56;5020288;28;20057;-81
2021/06/01 11:38:01;;;;;;;8.68;4.30;;;;;;;27.71;24.87;101864.75;5024509;28;20118;-82
2021/06/01 11:40:34;;;;;;;12.05;5.22;;;;;;;27.62;25.19;101863.69;5016891;28;20057;-79
2021/06/01 11:43:02;;;;;;;;;;;;;;;27.50;24.25;101867.53;5024156;28;20148;-80
2021/06/01 11:45:46;;;;;;;8.60;4.47;;;;;;;27.44;24.62;101854.38;5020012;28;20318;-79
2021/06/01 11:50:55;;;;;;;10.30;5.03;;;;;;;27.55;24.04;101855.16;5008366;28;20053;-80
2021/06/01 11:51:18;;;;;;;10.90;5.13;;;;;;;27.45;23.83;101861.56;5021034;28;20104;-79
2021/06/01 11:53:54;;;;;;;8.27;4.53;;;;;;;27.83;23.50;101858.16;5022591;28;20061;-80
2021/06/01 11:56:45;;;;;;;9.05;4.93;;;;;;;27.30;23.67;101856.44;5024422;28;20061;-80
2021/06/01 12:18:46;;;;;;;9.38;5.25;;;;;;;27.61;24.33;101829.06;5025354;28;20115;-79